createdAt,value
2018-11-05T00:01:18.040Z,11.44
2018-11-05T00:03:46.390Z,11.44
2018-11-05T00:06:14.759Z,11.43
2018-11-05T00:08:43.098Z,11.45
2018-11-05T00:11:11.451Z,11.45
2018-11-05T00:13:39.807Z,11.47
2018-11-05T00:16:08.163Z,11.46
2018-11-05T00:18:36.496Z,11.41
2018-11-05T00:21:04.869Z,11.45
2018-11-05T00:23:33.220Z,11.44
2018-11-05T00:26:01.565Z,11.47
2018-11-05T00:28:30.081Z,11.49
2018-11-05T00:30:58.559Z,11.47
2018-11-05T00:33:26.900Z,11.48
2018-11-05T00:35:55.251Z,11.48
2018-11-05T00:38:23.579Z,11.48
2018-11-05T00:40:51.924Z,11.48
2018-11-05T00:43:20.290Z,11.43
2018-11-05T00:45:48.732Z,11.41
2018-11-05T00:48:17.013Z,11.40
2018-11-05T00:50:45.360Z,11.43
2018-11-05T00:53:13.698Z,11.44
2018-11-05T00:55:42.136Z,11.43
2018-11-05T00:58:10.498Z,11.41
2018-11-05T01:00:38.871Z,11.40
2018-11-05T01:03:07.238Z,11.41
2018-11-05T01:05:35.620Z,11.43
2018-11-05T01:08:03.977Z,11.42
2018-11-05T01:10:32.319Z,11.41
2018-11-05T01:13:00.682Z,11.43
2018-11-05T01:15:29.043Z,11.38
2018-11-05T01:17:57.392Z,11.36
2018-11-05T01:20:25.737Z,11.41
2018-11-05T01:22:54.120Z,11.41
2018-11-05T01:25:22.477Z,11.42
2018-11-05T01:27:50.807Z,11.44
2018-11-05T01:30:19.135Z,11.42
2018-11-05T01:32:47.494Z,11.41
2018-11-05T01:35:15.857Z,11.42
2018-11-05T01:37:44.187Z,11.40
2018-11-05T01:40:14.472Z,11.42
2018-11-05T01:42:43.013Z,11.43
2018-11-05T01:45:12.661Z,11.44
2018-11-05T01:47:41.877Z,11.47
2018-11-05T01:50:12.297Z,11.46
2018-11-05T01:52:40.980Z,11.46
2018-11-05T01:55:09.974Z,11.47
2018-11-05T01:57:38.980Z,11.49
2018-11-05T02:00:09.884Z,11.47
2018-11-05T02:02:38.397Z,11.48
2018-11-05T02:05:07.601Z,11.50
2018-11-05T02:07:35.971Z,11.50
2018-11-05T02:10:06.101Z,11.49
2018-11-05T02:12:34.470Z,11.52
2018-11-05T02:15:02.855Z,11.54
2018-11-05T02:17:31.270Z,11.54
2018-11-05T02:19:59.609Z,11.51
2018-11-05T02:22:27.989Z,11.51
2018-11-05T02:24:56.364Z,11.54
2018-11-05T02:27:24.831Z,11.55
2018-11-05T02:29:53.145Z,11.56
2018-11-05T02:32:21.566Z,11.53
2018-11-05T02:34:49.913Z,11.48
2018-11-05T02:37:18.298Z,11.51
2018-11-05T02:39:46.674Z,11.55
2018-11-05T02:42:15.012Z,11.53
2018-11-05T02:44:43.477Z,11.53
2018-11-05T02:47:11.864Z,11.52
2018-11-05T02:49:40.210Z,11.52
2018-11-05T02:52:08.565Z,11.53
2018-11-05T02:54:36.916Z,11.54
2018-11-05T02:57:05.300Z,11.55
2018-11-05T02:59:33.704Z,11.52
2018-11-05T03:02:02.062Z,11.54
2018-11-05T03:04:30.437Z,11.52
2018-11-05T03:06:58.828Z,11.53
2018-11-05T03:09:27.163Z,11.54
2018-11-05T03:11:55.498Z,11.55
2018-11-05T03:14:23.850Z,11.56
2018-11-05T03:16:52.237Z,11.55
2018-11-05T03:19:20.581Z,11.53
2018-11-05T03:21:48.928Z,11.53
2018-11-05T03:24:17.270Z,11.53
2018-11-05T03:26:45.636Z,11.55
2018-11-05T03:29:13.976Z,11.50
2018-11-05T03:31:42.293Z,11.53
2018-11-05T03:34:10.697Z,11.56
2018-11-05T03:36:39.043Z,11.54
2018-11-05T03:39:09.353Z,11.54
2018-11-05T03:41:37.959Z,11.52
2018-11-05T03:44:06.944Z,11.52
2018-11-05T03:46:35.516Z,11.53
2018-11-05T03:49:03.899Z,11.53
2018-11-05T03:51:32.300Z,11.52
2018-11-05T03:54:00.652Z,11.53
2018-11-05T03:56:29.121Z,11.53
2018-11-05T03:58:57.408Z,11.55
2018-11-05T04:01:25.769Z,11.55
2018-11-05T04:03:54.128Z,11.53
2018-11-05T04:06:22.473Z,11.54
2018-11-05T04:08:50.827Z,11.53
2018-11-05T04:11:19.210Z,11.51
2018-11-05T04:13:47.713Z,11.53
2018-11-05T04:16:16.062Z,11.55
2018-11-05T04:18:44.403Z,11.56
2018-11-05T04:21:12.785Z,11.54
2018-11-05T04:23:41.321Z,11.53
2018-11-05T04:26:09.676Z,11.55
2018-11-05T04:28:38.057Z,11.51
2018-11-05T04:31:06.406Z,11.51
2018-11-05T04:33:34.845Z,11.51
2018-11-05T04:36:03.217Z,11.51
2018-11-05T04:38:31.573Z,11.51
2018-11-05T04:40:59.925Z,11.49
2018-11-05T04:43:28.255Z,11.50
2018-11-05T04:45:56.605Z,11.49
2018-11-05T04:48:24.960Z,11.50
2018-11-05T04:50:53.338Z,11.48
2018-11-05T04:53:21.686Z,11.45
2018-11-05T04:55:50.041Z,11.44
2018-11-05T04:58:18.407Z,11.43
2018-11-05T05:00:46.786Z,11.48
2018-11-05T05:03:15.157Z,11.46
2018-11-05T05:05:43.511Z,11.46
2018-11-05T05:08:11.887Z,11.42
2018-11-05T05:10:40.223Z,11.42
2018-11-05T05:13:08.580Z,11.41
2018-11-05T05:15:36.956Z,11.38
2018-11-05T05:18:05.533Z,11.38
2018-11-05T05:20:33.885Z,11.36
2018-11-05T05:23:02.412Z,11.36
2018-11-05T05:25:30.567Z,11.37
2018-11-05T05:27:58.917Z,11.38
2018-11-05T05:30:27.256Z,11.36
2018-11-05T05:32:55.632Z,11.36
2018-11-05T05:35:24.535Z,11.35
2018-11-05T05:37:52.890Z,11.34
2018-11-05T05:40:21.224Z,11.32
2018-11-05T05:42:49.571Z,11.33
2018-11-05T05:45:17.909Z,11.31
2018-11-05T05:47:46.258Z,11.30
2018-11-05T05:50:16.233Z,11.29
2018-11-05T05:52:45.737Z,11.29
2018-11-05T05:55:14.628Z,11.28
2018-11-05T05:57:43.290Z,11.28
2018-11-05T06:00:13.549Z,11.29
2018-11-05T06:02:41.900Z,11.26
2018-11-05T06:05:11.623Z,11.26
2018-11-05T06:07:40.725Z,11.24
2018-11-05T06:10:10.129Z,11.22
2018-11-05T06:12:38.521Z,11.22
2018-11-05T06:15:10.066Z,11.25
2018-11-05T06:17:38.527Z,11.25
2018-11-05T06:20:09.356Z,11.25
2018-11-05T06:22:37.705Z,11.24
2018-11-05T06:25:07.238Z,11.23
2018-11-05T06:27:35.846Z,11.27
2018-11-05T06:30:05.738Z,11.23
2018-11-05T06:32:34.069Z,11.24
2018-11-05T06:35:02.393Z,11.23
2018-11-05T06:37:30.737Z,11.24
2018-11-05T06:39:59.084Z,11.27
2018-11-05T06:42:27.454Z,11.23
2018-11-05T06:44:55.896Z,11.22
2018-11-05T06:47:24.224Z,11.23
2018-11-05T06:49:52.873Z,11.22
2018-11-05T06:52:21.206Z,11.25
2018-11-05T06:54:49.552Z,11.23
2018-11-05T06:57:17.959Z,11.23
2018-11-05T06:59:46.311Z,11.25
2018-11-05T07:02:14.651Z,11.26
2018-11-05T07:04:43.009Z,11.23
2018-11-05T07:07:11.343Z,11.24
2018-11-05T07:09:39.770Z,11.26
2018-11-05T07:12:08.112Z,11.24
2018-11-05T07:14:36.471Z,11.23
2018-11-05T07:17:04.879Z,11.24
2018-11-05T07:19:33.337Z,11.27
2018-11-05T07:22:01.950Z,11.25
2018-11-05T07:24:30.310Z,11.25
2018-11-05T07:26:58.657Z,11.28
2018-11-05T07:29:27.014Z,11.29
2018-11-05T07:31:55.623Z,11.30
2018-11-05T07:34:24.039Z,11.23
2018-11-05T07:36:52.387Z,11.26
2018-11-05T07:39:20.731Z,11.23
2018-11-05T07:41:49.069Z,11.29
2018-11-05T07:44:17.550Z,11.25
2018-11-05T07:46:45.901Z,11.25
2018-11-05T07:49:14.761Z,11.24
2018-11-05T07:51:43.105Z,11.32
2018-11-05T07:54:11.485Z,11.33
2018-11-05T07:56:39.833Z,11.32
2018-11-05T07:59:08.611Z,11.36
2018-11-05T08:01:36.959Z,11.35
2018-11-05T08:04:05.476Z,11.35
2018-11-05T08:06:33.824Z,11.35
2018-11-05T08:09:02.165Z,11.32
2018-11-05T08:11:30.519Z,11.31
2018-11-05T08:13:58.849Z,11.43
2018-11-05T08:16:27.208Z,11.42
2018-11-05T08:18:55.572Z,11.49
2018-11-05T08:21:23.923Z,11.49
2018-11-05T08:23:52.271Z,11.53
2018-11-05T08:26:20.642Z,11.54
2018-11-05T08:28:48.989Z,11.54
2018-11-05T08:31:17.348Z,11.56
2018-11-05T08:33:45.697Z,11.59
2018-11-05T08:36:14.057Z,11.64
2018-11-05T08:38:42.408Z,11.75
2018-11-05T08:41:10.759Z,11.88
2018-11-05T08:43:39.069Z,11.94
2018-11-05T08:46:07.396Z,11.95
2018-11-05T08:48:35.749Z,11.95
2018-11-05T08:51:04.368Z,11.98
2018-11-05T08:53:32.479Z,12.00
2018-11-05T08:56:00.825Z,11.98
2018-11-05T08:58:29.161Z,11.99
2018-11-05T09:02:03.265Z,12.06
2018-11-05T09:04:31.681Z,12.29
2018-11-05T09:06:59.985Z,12.59
2018-11-05T09:09:28.316Z,12.49
2018-11-05T09:11:56.713Z,12.30
2018-11-05T09:14:25.077Z,12.41
2018-11-05T09:16:53.413Z,12.58
2018-11-05T09:19:21.789Z,12.63
2018-11-05T09:21:50.153Z,12.78
2018-11-05T09:24:18.477Z,12.90
2018-11-05T09:26:46.829Z,13.02
2018-11-05T09:29:15.156Z,13.28
2018-11-05T09:31:43.570Z,13.31
2018-11-05T09:34:11.960Z,13.25
2018-11-05T09:36:40.562Z,13.19
2018-11-05T09:39:09.454Z,13.02
2018-11-05T09:41:37.768Z,12.81
2018-11-05T09:44:06.457Z,12.71
2018-11-05T09:46:34.828Z,12.75
2018-11-05T09:49:03.152Z,12.77
2018-11-05T09:51:31.464Z,12.63
2018-11-05T09:53:59.803Z,12.54
2018-11-05T09:56:28.132Z,12.67
2018-11-05T09:58:56.479Z,12.77
2018-11-05T10:01:24.823Z,12.99
2018-11-05T10:03:56.172Z,12.94
2018-11-05T10:06:25.192Z,12.94
2018-11-05T10:08:53.689Z,12.97
2018-11-05T10:11:22.028Z,12.86
2018-11-05T10:13:50.406Z,12.95
2018-11-05T10:16:18.784Z,12.99
2018-11-05T10:18:47.116Z,13.20
2018-11-05T10:21:15.438Z,13.33
2018-11-05T10:23:43.762Z,13.37
2018-11-05T10:26:12.132Z,13.36
2018-11-05T10:28:40.428Z,13.67
2018-11-05T10:31:08.766Z,13.86
2018-11-05T10:33:37.777Z,13.88
2018-11-05T10:36:05.966Z,13.90
2018-11-05T10:38:34.315Z,13.70
2018-11-05T10:41:02.639Z,13.77
2018-11-05T10:43:30.993Z,13.82
2018-11-05T10:45:59.327Z,13.84
2018-11-05T10:48:27.664Z,13.92
2018-11-05T10:50:56.059Z,13.69
2018-11-05T10:53:24.363Z,13.74
2018-11-05T10:55:52.701Z,13.84
2018-11-05T10:58:21.147Z,13.93
2018-11-05T11:00:54.667Z,13.93
2018-11-05T11:03:23.004Z,13.93
2018-11-05T11:05:51.327Z,13.83
2018-11-05T11:08:19.678Z,13.88
2018-11-05T11:10:47.989Z,13.90
2018-11-05T11:13:16.317Z,13.95
2018-11-05T11:15:44.644Z,13.97
2018-11-05T11:18:13.195Z,13.98
2018-11-05T11:20:41.521Z,13.99
2018-11-05T11:23:09.856Z,14.01
2018-11-05T11:25:38.178Z,14.03
2018-11-05T11:28:06.724Z,14.03
2018-11-05T11:30:34.934Z,14.11
2018-11-05T11:33:03.261Z,14.17
2018-11-05T11:35:31.584Z,14.21
2018-11-05T11:37:59.930Z,14.21
2018-11-05T11:40:28.244Z,14.24
2018-11-05T11:42:56.580Z,14.19
2018-11-05T11:45:25.294Z,14.20
2018-11-05T11:47:53.653Z,14.24
2018-11-05T11:50:22.158Z,14.27
2018-11-05T11:52:50.751Z,14.26
2018-11-05T11:55:20.288Z,14.31
2018-11-05T11:57:48.624Z,14.39
2018-11-05T12:00:23.353Z,14.48
2018-11-05T12:02:52.228Z,14.48
2018-11-05T12:05:20.820Z,14.45
2018-11-05T12:07:49.072Z,14.53
2018-11-05T12:10:19.313Z,14.56
2018-11-05T12:12:47.804Z,14.61
2018-11-05T12:15:17.625Z,14.59
2018-11-05T12:17:47.003Z,14.66
2018-11-05T12:20:17.470Z,14.67
2018-11-05T12:22:46.517Z,14.69
2018-11-05T12:25:14.840Z,14.72
2018-11-05T12:27:43.181Z,14.74
2018-11-05T12:30:14.954Z,14.83
2018-11-05T12:32:43.952Z,14.82
2018-11-05T12:35:12.948Z,14.84
2018-11-05T12:37:42.342Z,14.79
2018-11-05T12:40:12.658Z,14.80
2018-11-05T12:42:40.998Z,14.77
2018-11-05T12:45:09.683Z,14.75
2018-11-05T12:47:38.222Z,14.72
2018-11-05T12:50:10.043Z,14.74
2018-11-05T12:52:38.373Z,14.75
2018-11-05T12:55:07.648Z,14.72
2018-11-05T12:57:36.051Z,14.70
2018-11-05T13:00:05.822Z,14.67
2018-11-05T13:02:34.173Z,14.64
2018-11-05T13:05:02.520Z,14.66
2018-11-05T13:07:30.867Z,14.67
2018-11-05T13:09:59.211Z,14.64
2018-11-05T13:12:27.565Z,14.65
2018-11-05T13:14:55.970Z,14.66
2018-11-05T13:17:24.313Z,14.65
2018-11-05T13:19:52.668Z,14.69
2018-11-05T13:22:21.103Z,14.68
2018-11-05T13:24:49.349Z,14.71
2018-11-05T13:27:17.693Z,14.68
2018-11-05T13:29:46.047Z,14.73
2018-11-05T13:32:14.416Z,14.79
2018-11-05T13:34:42.782Z,14.81
2018-11-05T13:37:11.258Z,14.78
2018-11-05T13:39:39.507Z,14.81
2018-11-05T13:42:08.066Z,14.79
2018-11-05T13:44:36.481Z,14.75
2018-11-05T13:47:05.058Z,14.72
2018-11-05T13:49:33.302Z,14.71
2018-11-05T13:52:01.683Z,14.70
2018-11-05T13:54:30.070Z,14.66
2018-11-05T13:56:58.306Z,14.62
2018-11-05T13:59:26.625Z,14.63
2018-11-05T14:01:54.954Z,14.56
2018-11-05T14:04:23.277Z,14.55
2018-11-05T14:06:51.655Z,14.52
2018-11-05T14:09:20.005Z,14.49
2018-11-05T14:11:48.344Z,14.45
2018-11-05T14:14:16.729Z,14.44
2018-11-05T14:16:45.068Z,14.41
2018-11-05T14:19:13.392Z,14.40
2018-11-05T14:21:41.724Z,14.40
2018-11-05T14:24:10.034Z,14.36
2018-11-05T14:26:38.380Z,14.35
2018-11-05T14:29:07.102Z,14.32
2018-11-05T14:31:35.107Z,14.30
2018-11-05T14:34:03.485Z,14.29
2018-11-05T14:36:31.884Z,14.29
2018-11-05T14:39:00.241Z,14.27
2018-11-05T14:41:28.588Z,14.24
2018-11-05T14:43:56.932Z,14.20
2018-11-05T14:46:25.279Z,14.16
2018-11-05T14:48:53.657Z,14.14
2018-11-05T14:51:21.969Z,14.14
2018-11-05T14:53:50.299Z,14.12
2018-11-05T14:56:18.623Z,14.08
2018-11-05T14:58:47.036Z,14.03
2018-11-05T15:01:15.383Z,14.02
2018-11-05T15:03:43.732Z,13.99
2018-11-05T15:06:12.108Z,14.01
2018-11-05T15:08:40.656Z,14.00
2018-11-05T15:11:09.001Z,13.98
2018-11-05T15:13:37.341Z,13.94
2018-11-05T15:16:05.930Z,13.93
2018-11-05T15:18:34.384Z,13.90
2018-11-05T15:21:02.712Z,13.90
2018-11-05T15:23:31.977Z,13.88
2018-11-05T15:26:00.422Z,13.86
2018-11-05T15:28:28.715Z,13.85
2018-11-05T15:30:57.058Z,13.81
2018-11-05T15:33:25.452Z,13.81
2018-11-05T15:35:53.742Z,13.79
2018-11-05T15:38:22.097Z,13.73
2018-11-05T15:40:50.440Z,13.72
2018-11-05T15:43:18.825Z,13.70
2018-11-05T15:45:47.168Z,13.69
2018-11-05T15:48:15.509Z,13.66
2018-11-05T15:50:43.823Z,13.63
2018-11-05T15:53:12.484Z,13.58
2018-11-05T15:55:40.503Z,13.58
2018-11-05T15:58:08.851Z,13.56
2018-11-05T16:00:37.508Z,13.55
2018-11-05T16:03:06.213Z,13.52
2018-11-05T16:05:34.569Z,13.55
2018-11-05T16:08:02.910Z,13.55
2018-11-05T16:10:31.233Z,13.57
2018-11-05T16:12:59.565Z,13.58
2018-11-05T16:15:27.900Z,13.58
2018-11-05T16:17:56.252Z,13.58
2018-11-05T16:20:24.612Z,13.55
2018-11-05T16:22:53.262Z,13.53
2018-11-05T16:25:21.621Z,13.53
2018-11-05T16:27:50.066Z,13.50
2018-11-05T16:30:19.753Z,13.48
2018-11-05T16:32:48.835Z,13.48
2018-11-05T16:35:17.251Z,13.45
2018-11-05T16:37:45.564Z,13.41
2018-11-05T16:40:17.952Z,13.36
2018-11-05T16:42:47.454Z,13.37
2018-11-05T16:45:15.811Z,13.36
2018-11-05T16:47:44.541Z,13.29
2018-11-05T16:50:18.572Z,13.29
2018-11-05T16:52:46.991Z,13.28
2018-11-05T16:55:15.704Z,13.28
2018-11-05T16:57:44.889Z,13.24
2018-11-05T17:00:13.893Z,13.22
2018-11-05T17:02:43.086Z,13.21
2018-11-05T17:05:11.280Z,13.21
2018-11-05T17:07:39.850Z,13.17
2018-11-05T17:10:09.667Z,13.17
2018-11-05T17:12:38.020Z,13.17
2018-11-05T17:15:08.237Z,13.15
2018-11-05T17:17:36.589Z,13.14
2018-11-05T17:20:06.268Z,13.15
2018-11-05T17:22:34.648Z,13.13
2018-11-05T17:25:02.997Z,13.12
2018-11-05T17:27:31.360Z,13.11
2018-11-05T17:29:59.713Z,13.10
2018-11-05T17:32:28.057Z,13.11
2018-11-05T17:34:56.426Z,13.09
2018-11-05T17:37:24.754Z,13.09
2018-11-05T17:39:53.162Z,13.07
2018-11-05T17:42:21.505Z,13.05
2018-11-05T17:44:49.852Z,13.07
2018-11-05T17:47:18.216Z,13.07
2018-11-05T17:49:46.571Z,13.05
2018-11-05T17:52:14.910Z,13.03
2018-11-05T17:54:43.252Z,13.06
2018-11-05T17:57:11.588Z,13.06
2018-11-05T17:59:39.985Z,13.06
2018-11-05T18:02:09.316Z,13.06
2018-11-05T18:04:37.694Z,13.05
2018-11-05T18:07:06.046Z,13.09
2018-11-05T18:09:34.381Z,13.09
2018-11-05T18:12:02.737Z,13.08
2018-11-05T18:14:31.177Z,13.08
2018-11-05T18:16:59.530Z,13.09
2018-11-05T18:19:27.889Z,13.06
2018-11-05T18:21:56.291Z,13.04
2018-11-05T18:24:24.774Z,13.04
2018-11-05T18:26:53.107Z,13.03
2018-11-05T18:29:21.456Z,13.02
2018-11-05T18:31:49.836Z,13.02
2018-11-05T18:34:18.186Z,13.03
2018-11-05T18:36:46.524Z,13.01
2018-11-05T18:39:14.857Z,13.01
2018-11-05T18:41:44.023Z,13.02
2018-11-05T18:44:12.375Z,13.04
2018-11-05T18:46:40.735Z,13.02
2018-11-05T18:49:09.110Z,13.02
2018-11-05T18:51:37.447Z,13.02
2018-11-05T18:54:05.851Z,13.01
2018-11-05T18:56:34.260Z,13.00
2018-11-05T18:59:02.570Z,12.97
2018-11-05T19:01:30.927Z,12.95
2018-11-05T19:03:59.345Z,12.92
2018-11-05T19:06:27.698Z,12.92
2018-11-05T19:08:56.957Z,12.89
2018-11-05T19:11:25.850Z,12.87
2018-11-05T19:13:54.304Z,12.83
2018-11-05T19:16:22.692Z,12.80
2018-11-05T19:18:51.116Z,12.76
2018-11-05T19:21:19.591Z,12.77
2018-11-05T19:23:48.464Z,12.73
2018-11-05T19:26:16.673Z,12.73
2018-11-05T19:28:45.053Z,12.73
2018-11-05T19:31:13.571Z,12.73
2018-11-05T19:33:41.958Z,12.72
2018-11-05T19:36:10.412Z,12.70
2018-11-05T19:38:38.886Z,12.71
2018-11-05T19:41:07.264Z,12.70
2018-11-05T19:43:36.113Z,12.70
2018-11-05T19:46:04.478Z,12.68
2018-11-05T19:48:32.825Z,12.70
2018-11-05T19:51:01.214Z,12.67
2018-11-05T19:53:29.616Z,12.66
2018-11-05T19:55:58.070Z,12.64
2018-11-05T19:58:26.416Z,12.59
2018-11-05T20:00:54.876Z,12.59
2018-11-05T20:03:23.168Z,12.58
2018-11-05T20:05:51.654Z,12.55
2018-11-05T20:08:20.183Z,12.52
2018-11-05T20:10:48.532Z,12.50
2018-11-05T20:13:16.898Z,12.45
2018-11-05T20:15:45.305Z,12.43
2018-11-05T20:18:13.684Z,12.40
2018-11-05T20:20:42.057Z,12.40
2018-11-05T20:23:10.433Z,12.33
2018-11-05T20:25:39.247Z,12.31
2018-11-05T20:28:07.604Z,12.29
2018-11-05T20:30:35.977Z,12.27
2018-11-05T20:33:04.857Z,12.24
2018-11-05T20:35:33.028Z,12.24
2018-11-05T20:38:01.430Z,12.19
2018-11-05T20:40:29.867Z,12.18
2018-11-05T20:42:58.182Z,12.18
2018-11-05T20:45:26.545Z,12.15
2018-11-05T20:47:54.932Z,12.09
2018-11-05T20:50:23.782Z,12.07
2018-11-05T20:52:52.132Z,12.05
2018-11-05T20:55:20.514Z,12.07
2018-11-05T20:57:49.064Z,12.06
2018-11-05T21:00:18.968Z,12.08
2018-11-05T21:02:47.609Z,12.08
2018-11-05T21:05:16.833Z,12.08
2018-11-05T21:07:45.541Z,12.09
2018-11-05T21:10:14.636Z,12.07
2018-11-05T21:12:43.658Z,12.05
2018-11-05T21:15:20.391Z,12.06
2018-11-05T21:17:49.543Z,12.03
2018-11-05T21:20:17.998Z,12.02
2018-11-05T21:22:47.870Z,12.01
2018-11-05T21:25:16.068Z,11.98
2018-11-05T21:27:44.759Z,11.97
2018-11-05T21:30:15.369Z,11.96
2018-11-05T21:32:43.810Z,11.95
2018-11-05T21:35:14.031Z,11.95
2018-11-05T21:37:42.724Z,11.94
2018-11-05T21:40:12.284Z,11.93
2018-11-05T21:42:40.635Z,11.92
2018-11-05T21:45:10.478Z,11.93
2018-11-05T21:47:39.364Z,11.93
2018-11-05T21:50:10.367Z,11.88
2018-11-05T21:52:39.504Z,11.89
2018-11-05T21:55:08.499Z,11.89
2018-11-05T21:57:37.988Z,11.88
2018-11-05T22:00:09.820Z,11.87
2018-11-05T22:02:43.514Z,11.86
2018-11-05T22:05:11.938Z,11.86
2018-11-05T22:07:40.308Z,11.86
2018-11-05T22:10:08.736Z,11.88
2018-11-05T22:12:37.684Z,11.86
2018-11-05T22:15:06.424Z,11.84
2018-11-05T22:17:35.184Z,11.85
2018-11-05T22:20:03.980Z,11.84
2018-11-05T22:22:32.387Z,11.87
2018-11-05T22:25:00.700Z,11.88
2018-11-05T22:27:29.659Z,11.89
2018-11-05T22:29:58.924Z,11.93
2018-11-05T22:32:27.306Z,11.93
2018-11-05T22:34:55.653Z,11.99
2018-11-05T22:37:24.059Z,11.98
2018-11-05T22:39:52.438Z,11.99
2018-11-05T22:42:20.817Z,12.01
2018-11-05T22:44:49.308Z,12.01
2018-11-05T22:47:17.882Z,12.02
2018-11-05T22:49:46.301Z,12.01
2018-11-05T22:52:14.648Z,12.01
2018-11-05T22:54:42.989Z,12.02
2018-11-05T22:57:11.327Z,12.01
2018-11-05T22:59:39.658Z,12.00
2018-11-05T23:02:07.983Z,12.03
2018-11-05T23:04:36.363Z,12.02
2018-11-05T23:07:04.708Z,12.02
2018-11-05T23:09:33.064Z,12.01
2018-11-05T23:12:01.476Z,12.02
2018-11-05T23:14:29.817Z,12.01
2018-11-05T23:16:58.439Z,12.02
2018-11-05T23:19:27.302Z,12.03
2018-11-05T23:21:55.691Z,12.00
2018-11-05T23:24:24.067Z,12.00
2018-11-05T23:26:52.428Z,11.98
2018-11-05T23:29:20.772Z,11.97
2018-11-05T23:31:49.151Z,11.97
2018-11-05T23:34:17.529Z,11.96
2018-11-05T23:36:45.905Z,11.97
2018-11-05T23:39:14.287Z,11.94
2018-11-05T23:41:42.662Z,11.93
2018-11-05T23:44:11.028Z,11.93
2018-11-05T23:46:39.425Z,11.93
2018-11-05T23:49:07.772Z,11.91
2018-11-05T23:51:36.170Z,11.90
2018-11-05T23:54:04.633Z,11.91
2018-11-05T23:56:32.981Z,11.89
2018-11-05T23:59:01.293Z,11.86
